createdAt,value
2016-09-25T00:00:24.467Z,11.03
2016-09-25T00:01:24.482Z,11.02
2016-09-25T00:02:24.505Z,11.03
2016-09-25T00:03:24.527Z,10.99
2016-09-25T00:04:24.558Z,11.04
2016-09-25T00:05:24.581Z,11.11
2016-09-25T00:06:39.548Z,10.96
2016-09-25T00:07:24.626Z,10.94
2016-09-25T00:08:39.565Z,10.99
2016-09-25T00:09:24.673Z,11
2016-09-25T00:10:24.697Z,11.03
2016-09-25T00:11:24.715Z,11.07
2016-09-25T00:12:24.738Z,11.04
2016-09-25T00:13:24.759Z,11.06
2016-09-25T00:14:24.783Z,11.07
2016-09-25T00:15:24.801Z,11.1
2016-09-25T00:16:24.823Z,11.03
2016-09-25T00:17:24.853Z,11.11
2016-09-25T00:18:24.868Z,11.11
2016-09-25T00:19:24.895Z,11.06
2016-09-25T00:21:24.942Z,11.11
2016-09-25T00:22:24.964Z,11.07
2016-09-25T00:23:24.985Z,11.14
2016-09-25T00:24:25.016Z,11.14
2016-09-25T00:25:25.029Z,11.14
2016-09-25T00:26:25.058Z,11.04
2016-09-25T00:27:25.075Z,11.07
2016-09-25T00:28:25.106Z,11.17
2016-09-25T00:29:25.125Z,11.1
2016-09-25T00:30:25.149Z,11.27
2016-09-25T00:31:25.164Z,11.24
2016-09-25T00:32:25.193Z,11.22
2016-09-25T00:34:25.232Z,11.17
2016-09-25T00:35:25.258Z,11.09
2016-09-25T00:36:25.277Z,11.17
2016-09-25T00:37:25.303Z,11.11
2016-09-25T00:38:40.248Z,11
2016-09-25T00:39:25.352Z,11.09
2016-09-25T00:40:25.375Z,11.09
2016-09-25T00:41:25.395Z,11.09
2016-09-25T00:42:25.422Z,11.02
2016-09-25T00:43:25.444Z,11.04
2016-09-25T00:44:25.476Z,11.07
2016-09-25T00:45:25.482Z,11.03
2016-09-25T00:46:25.508Z,11.04
2016-09-25T00:47:25.528Z,11.07
2016-09-25T00:48:25.558Z,11.09
2016-09-25T00:49:25.576Z,10.97
2016-09-25T00:50:25.597Z,11.11
2016-09-25T00:51:25.619Z,11.11
2016-09-25T00:52:25.636Z,11.07
2016-09-25T00:53:25.669Z,11.11
2016-09-25T00:54:40.608Z,11.04
2016-09-25T00:55:40.630Z,11.07
2016-09-25T00:56:25.735Z,11.09
2016-09-25T00:57:25.756Z,11
2016-09-25T00:58:25.776Z,11.07
2016-09-25T00:59:25.803Z,11
2016-09-25T01:00:25.820Z,10.99
2016-09-25T01:01:25.846Z,10.97
2016-09-25T01:02:25.919Z,10.99
2016-09-25T01:03:25.890Z,10.94
2016-09-25T01:04:25.922Z,10.91
2016-09-25T01:05:25.935Z,10.91
2016-09-25T01:06:25.955Z,10.91
2016-09-25T01:07:25.975Z,10.91
2016-09-25T01:08:26.003Z,10.91
2016-09-25T01:09:26.826Z,10.99
2016-09-25T01:10:40.970Z,10.88
2016-09-25T01:11:40.992Z,10.86
2016-09-25T01:12:26.094Z,10.85
2016-09-25T01:13:26.112Z,10.76
2016-09-25T01:14:26.142Z,10.71
2016-09-25T01:15:26.261Z,10.74
2016-09-25T01:16:26.187Z,10.71
2016-09-25T01:18:26.228Z,10.74
2016-09-25T01:19:26.252Z,10.73
2016-09-25T01:20:41.200Z,10.79
2016-09-25T01:21:26.291Z,10.79
2016-09-25T01:22:26.317Z,10.67
2016-09-25T01:23:26.358Z,10.68
2016-09-25T01:24:26.359Z,10.79
2016-09-25T01:25:26.388Z,10.73
2016-09-25T01:26:41.329Z,10.71
2016-09-25T01:27:26.430Z,10.74
2016-09-25T01:28:26.471Z,10.76
2016-09-25T01:29:26.479Z,10.67
2016-09-25T01:30:26.497Z,10.74
2016-09-25T01:31:26.522Z,10.7
2016-09-25T01:32:26.548Z,10.73
2016-09-25T01:33:26.610Z,10.71
2016-09-25T01:34:26.891Z,10.76
2016-09-25T01:35:26.610Z,10.73
2016-09-25T01:36:26.629Z,10.74
2016-09-25T01:37:26.651Z,10.88
2016-09-25T01:38:41.601Z,10.84
2016-09-25T01:39:26.698Z,10.84
2016-09-25T01:40:26.723Z,10.91
2016-09-25T01:41:41.669Z,10.86
2016-09-25T01:42:27.064Z,10.92
2016-09-25T01:43:26.794Z,10.88
2016-09-25T01:44:26.811Z,10.86
2016-09-25T01:45:26.836Z,10.86
2016-09-25T01:46:26.853Z,10.85
2016-09-25T01:47:26.880Z,10.85
2016-09-25T01:48:26.906Z,10.85
2016-09-25T01:49:26.932Z,10.76
2016-09-25T01:50:26.955Z,10.79
2016-09-25T01:51:26.971Z,10.78
2016-09-25T01:52:26.991Z,10.7
2016-09-25T01:53:27.021Z,10.74
2016-09-25T01:54:27.042Z,10.73
2016-09-25T01:55:27.054Z,10.79
2016-09-25T01:56:27.083Z,10.81
2016-09-25T01:57:27.109Z,10.91
2016-09-25T01:58:27.127Z,10.99
2016-09-25T01:59:27.156Z,10.85
2016-09-25T02:00:27.177Z,10.88
2016-09-25T02:01:27.194Z,10.85
2016-09-25T02:02:27.216Z,10.89
2016-09-25T02:03:27.240Z,10.86
2016-09-25T02:04:27.263Z,10.96
2016-09-25T02:05:27.286Z,10.86
2016-09-25T02:06:27.313Z,10.88
2016-09-25T02:07:27.330Z,10.92
2016-09-25T02:09:42.297Z,10.71
2016-09-25T02:11:27.415Z,10.7
2016-09-25T02:12:27.438Z,10.76
2016-09-25T02:13:42.383Z,10.76
2016-09-25T02:14:42.401Z,10.81
2016-09-25T02:15:27.505Z,10.84
2016-09-25T02:16:27.524Z,10.85
2016-09-25T02:17:27.567Z,10.96
2016-09-25T02:18:27.576Z,10.91
2016-09-25T02:19:27.592Z,10.92
2016-09-25T02:20:27.619Z,11
2016-09-25T02:21:27.639Z,10.94
2016-09-25T02:23:27.684Z,10.89
2016-09-25T02:24:27.714Z,10.88
2016-09-25T02:25:27.729Z,11.02
2016-09-25T02:27:42.699Z,10.99
2016-09-25T02:28:27.793Z,10.99
2016-09-25T02:29:42.739Z,10.97
2016-09-25T02:32:27.882Z,11.21
2016-09-25T02:33:27.955Z,11.15
2016-09-25T02:34:27.936Z,11.28
2016-09-25T02:35:27.954Z,11.18
2016-09-25T02:36:27.967Z,11.27
2016-09-25T02:38:28.070Z,11.24
2016-09-25T02:39:28.040Z,11.29
2016-09-25T02:40:28.064Z,11.22
2016-09-25T02:41:28.082Z,11.25
2016-09-25T02:43:28.131Z,11.28
2016-09-25T02:44:28.159Z,11.27
2016-09-25T02:45:43.103Z,11.27
2016-09-25T02:46:28.194Z,11.21
2016-09-25T02:47:28.223Z,11.24
2016-09-25T02:48:28.240Z,11.27
2016-09-25T02:49:28.265Z,11.22
2016-09-25T02:50:28.284Z,11.25
2016-09-25T02:51:28.307Z,11.22
2016-09-25T02:52:28.634Z,11.25
2016-09-25T02:53:28.361Z,11.21
2016-09-25T02:54:28.377Z,11.24
2016-09-25T02:55:28.396Z,11.27
2016-09-25T02:56:28.424Z,11.22
2016-09-25T02:57:28.443Z,11.24
2016-09-25T02:58:28.468Z,11.22
2016-09-25T02:59:28.490Z,11.18
2016-09-25T03:00:28.514Z,11.11
2016-09-25T03:01:43.457Z,11.1
2016-09-25T03:02:28.559Z,11.07
2016-09-25T03:03:28.585Z,11.07
2016-09-25T03:04:28.607Z,11.11
2016-09-25T03:05:28.626Z,11.03
2016-09-25T03:06:28.654Z,11.02
2016-09-25T03:07:28.967Z,10.94
2016-09-25T03:08:29.091Z,10.99
2016-09-25T03:09:28.714Z,11.02
2016-09-25T03:10:28.732Z,10.97
2016-09-25T03:11:28.757Z,10.99
2016-09-25T03:13:28.822Z,10.99
2016-09-25T03:14:28.824Z,10.97
2016-09-25T03:16:43.791Z,11.02
2016-09-25T03:17:28.899Z,10.99
2016-09-25T03:18:28.917Z,10.97
2016-09-25T03:19:28.937Z,10.96
2016-09-25T03:20:28.960Z,11.02
2016-09-25T03:21:28.991Z,11.03
2016-09-25T03:22:29.006Z,10.99
2016-09-25T03:23:29.032Z,11.09
2016-09-25T03:24:29.050Z,10.94
2016-09-25T03:25:29.076Z,10.99
2016-09-25T03:26:29.094Z,10.91
2016-09-25T03:28:29.137Z,10.89
2016-09-25T03:29:44.087Z,10.89
2016-09-25T03:30:29.236Z,10.88
2016-09-25T03:31:44.127Z,10.78
2016-09-25T03:32:29.231Z,10.71
2016-09-25T03:33:29.248Z,10.67
2016-09-25T03:34:29.283Z,10.64
2016-09-25T03:35:29.296Z,10.61
2016-09-25T03:36:29.339Z,10.68
2016-09-25T03:37:29.344Z,10.66
2016-09-25T03:38:29.364Z,10.64
2016-09-25T03:39:29.381Z,10.64
2016-09-25T03:40:29.405Z,10.6
2016-09-25T03:41:29.429Z,10.48
2016-09-25T03:43:29.487Z,10.48
2016-09-25T03:44:29.495Z,10.52
2016-09-25T03:46:29.546Z,10.33
2016-09-25T03:47:29.614Z,10.32
2016-09-25T03:48:44.505Z,10.36
2016-09-25T03:49:29.613Z,10.38
2016-09-25T03:51:29.652Z,10.29
2016-09-25T03:52:29.669Z,10.32
2016-09-25T03:53:29.694Z,10.29
2016-09-25T03:54:29.717Z,10.2
2016-09-25T03:55:29.740Z,10.27
2016-09-25T03:56:29.772Z,10.22
2016-09-25T03:58:29.807Z,10.2
2016-09-25T03:59:30.382Z,10.15
2016-09-25T04:00:29.847Z,10.15
2016-09-25T04:01:29.869Z,10.17
2016-09-25T04:02:29.893Z,10.18
2016-09-25T04:03:29.915Z,10.12
2016-09-25T04:04:44.864Z,10.23
2016-09-25T04:05:30.012Z,10.12
2016-09-25T04:06:29.991Z,10.2
2016-09-25T04:07:30.017Z,10.15
2016-09-25T04:08:30.032Z,10.09
2016-09-25T04:09:30.057Z,10.08
2016-09-25T04:10:30.374Z,9.99
2016-09-25T04:11:30.093Z,9.93
2016-09-25T04:12:30.115Z,9.96
2016-09-25T04:13:30.188Z,9.94
2016-09-25T04:14:30.155Z,9.83
2016-09-25T04:15:30.185Z,9.72
2016-09-25T04:16:30.802Z,9.86
2016-09-25T04:18:30.244Z,9.89
2016-09-25T04:19:30.272Z,9.89
2016-09-25T04:20:45.221Z,9.78
2016-09-25T04:21:30.318Z,9.86
2016-09-25T04:22:30.337Z,9.79
2016-09-25T04:23:30.355Z,9.79
2016-09-25T04:24:30.375Z,9.81
2016-09-25T04:25:30.404Z,9.72
2016-09-25T04:26:30.417Z,9.69
2016-09-25T04:27:30.451Z,9.61
2016-09-25T04:28:30.766Z,9.58
2016-09-25T04:29:30.487Z,9.56
2016-09-25T04:30:30.507Z,9.57
2016-09-25T04:31:30.528Z,9.61
2016-09-25T04:32:30.549Z,9.57
2016-09-25T04:33:30.581Z,9.51
2016-09-25T04:34:30.599Z,9.57
2016-09-25T04:35:30.624Z,9.51
2016-09-25T04:36:45.563Z,9.4
2016-09-25T04:37:30.667Z,9.48
2016-09-25T04:38:30.832Z,9.47
2016-09-25T04:39:30.707Z,9.5
2016-09-25T04:40:30.730Z,9.4
2016-09-25T04:41:30.753Z,9.4
2016-09-25T04:42:30.785Z,9.47
2016-09-25T04:43:30.800Z,9.43
2016-09-25T04:44:30.874Z,9.5
2016-09-25T04:45:30.844Z,9.43
2016-09-25T04:46:30.863Z,9.5
2016-09-25T04:47:30.884Z,9.51
2016-09-25T04:48:30.903Z,9.46
2016-09-25T04:49:30.930Z,9.39
2016-09-25T04:50:30.951Z,9.43
2016-09-25T04:51:45.943Z,9.36
2016-09-25T04:52:31.005Z,9.46
2016-09-25T04:53:31.066Z,9.42
2016-09-25T04:54:31.037Z,9.5
2016-09-25T04:55:31.065Z,9.48
2016-09-25T04:56:31.083Z,9.47
2016-09-25T04:57:31.118Z,9.42
2016-09-25T04:58:31.433Z,9.46
2016-09-25T04:59:31.147Z,9.47
2016-09-25T05:00:31.169Z,9.42
2016-09-25T05:01:31.185Z,9.4
2016-09-25T05:02:31.217Z,9.53
2016-09-25T05:03:31.244Z,9.4
2016-09-25T05:04:46.182Z,9.47
2016-09-25T05:07:46.243Z,9.42
2016-09-25T05:08:31.345Z,9.42
2016-09-25T05:09:31.370Z,9.47
2016-09-25T05:10:31.388Z,9.47
2016-09-25T05:11:31.407Z,9.47
2016-09-25T05:12:31.431Z,9.48
2016-09-25T05:13:31.498Z,9.56
2016-09-25T05:14:31.480Z,9.64
2016-09-25T05:15:31.498Z,9.61
2016-09-25T05:16:31.513Z,9.56
2016-09-25T05:17:31.546Z,9.54
2016-09-25T05:19:31.595Z,9.61
2016-09-25T05:20:31.605Z,9.56
2016-09-25T05:21:31.623Z,9.54
2016-09-25T05:22:31.643Z,9.57
2016-09-25T05:23:46.591Z,9.65
2016-09-25T05:24:31.693Z,9.6
2016-09-25T05:25:31.761Z,9.61
2016-09-25T05:26:31.737Z,9.61
2016-09-25T05:27:31.763Z,9.74
2016-09-25T05:28:31.778Z,9.76
2016-09-25T05:29:31.807Z,9.76
2016-09-25T05:30:31.832Z,9.81
2016-09-25T05:31:31.842Z,9.86
2016-09-25T05:32:31.919Z,9.94
2016-09-25T05:33:31.889Z,9.99
2016-09-25T05:34:31.911Z,9.97
2016-09-25T05:35:31.931Z,9.99
2016-09-25T05:36:31.954Z,10.11
2016-09-25T05:37:31.983Z,10.05
2016-09-25T05:38:32.005Z,10.04
2016-09-25T05:39:46.944Z,10.14
2016-09-25T05:40:32.043Z,10.08
2016-09-25T05:41:32.063Z,10.2
2016-09-25T05:42:32.088Z,10.11
2016-09-25T05:43:32.113Z,10.22
2016-09-25T05:44:32.136Z,10.23
2016-09-25T05:45:32.153Z,10.15
2016-09-25T05:46:32.193Z,10.14
2016-09-25T05:47:32.198Z,10.18
2016-09-25T05:48:32.221Z,10.26
2016-09-25T05:49:32.242Z,10.32
2016-09-25T05:50:32.270Z,10.42
2016-09-25T05:53:32.333Z,10.6
2016-09-25T05:54:32.357Z,10.7
2016-09-25T05:55:47.299Z,10.76
2016-09-25T05:56:47.317Z,10.85
2016-09-25T05:57:32.418Z,10.99
2016-09-25T05:58:32.446Z,11.1
2016-09-25T05:59:32.467Z,11.22
2016-09-25T06:00:32.493Z,11.35
2016-09-25T06:01:32.563Z,11.54
2016-09-25T06:02:32.541Z,11.7
2016-09-25T06:03:32.561Z,11.73
2016-09-25T06:04:32.581Z,12.05
2016-09-25T06:05:32.958Z,12.16
2016-09-25T06:07:47.592Z,12.46
2016-09-25T06:08:32.687Z,12.67
2016-09-25T06:09:32.710Z,12.74
2016-09-25T06:10:32.729Z,12.85
2016-09-25T06:11:47.680Z,12.92
2016-09-25T06:12:32.787Z,13.01
2016-09-25T06:13:32.808Z,13.2
2016-09-25T06:14:32.833Z,13.17
2016-09-25T06:15:32.852Z,13.39
2016-09-25T06:16:32.889Z,13.46
2016-09-25T06:17:32.913Z,13.57
2016-09-25T06:18:32.938Z,13.6
2016-09-25T06:19:32.966Z,13.66
2016-09-25T06:20:32.988Z,13.87
2016-09-25T06:21:33.028Z,13.87
2016-09-25T06:22:33.042Z,13.89
2016-09-25T06:23:33.074Z,13.91
2016-09-25T06:24:33.097Z,13.88
2016-09-25T06:25:33.130Z,13.89
2016-09-25T06:26:48.070Z,13.95
2016-09-25T06:27:33.179Z,14.03
2016-09-25T06:28:48.124Z,14.04
2016-09-25T06:29:33.226Z,14.06
2016-09-25T06:30:33.257Z,14.2
2016-09-25T06:31:33.289Z,14.33
2016-09-25T06:32:33.312Z,14.42
2016-09-25T06:33:33.336Z,14.6
2016-09-25T06:35:33.402Z,14.64
2016-09-25T06:36:33.418Z,14.64
2016-09-25T06:37:33.449Z,14.68
2016-09-25T06:38:33.480Z,14.73
2016-09-25T06:39:33.499Z,14.86
2016-09-25T06:40:33.535Z,14.92
2016-09-25T06:41:33.556Z,14.99
2016-09-25T06:42:33.582Z,15.23
2016-09-25T06:43:33.613Z,15.35
2016-09-25T06:44:33.638Z,15.43
2016-09-25T06:45:33.667Z,15.28
2016-09-25T06:46:33.694Z,15.35
2016-09-25T06:47:33.725Z,15.49
2016-09-25T06:48:33.758Z,15.54
2016-09-25T06:49:33.782Z,15.71
2016-09-25T06:50:33.813Z,15.56
2016-09-25T06:51:33.839Z,15.6
2016-09-25T06:52:33.860Z,15.47
2016-09-25T06:54:48.851Z,15.65
2016-09-25T06:56:33.984Z,15.82
2016-09-25T06:57:34.004Z,15.89
2016-09-25T06:58:48.962Z,15.96
2016-09-25T06:59:34.116Z,16.09
2016-09-25T07:00:34.100Z,16.09
2016-09-25T07:01:34.121Z,16.07
2016-09-25T07:02:34.153Z,16.05
2016-09-25T07:03:34.178Z,16.12
2016-09-25T07:04:34.214Z,16.28
2016-09-25T07:05:34.243Z,16.24
2016-09-25T07:06:34.269Z,16.24
2016-09-25T07:07:34.449Z,16.2
2016-09-25T07:08:34.326Z,16.08
2016-09-25T07:09:34.356Z,16.15
2016-09-25T07:10:49.309Z,16.08
2016-09-25T07:11:34.416Z,16.14
2016-09-25T07:12:34.435Z,16.33
2016-09-25T07:13:49.387Z,16.52
2016-09-25T07:14:49.420Z,16.56
2016-09-25T07:15:34.525Z,16.6
2016-09-25T07:16:34.554Z,16.63
2016-09-25T07:18:34.625Z,16.64
2016-09-25T07:19:34.638Z,16.66
2016-09-25T07:20:34.670Z,16.56
2016-09-25T07:21:34.696Z,16.5
2016-09-25T07:22:34.719Z,16.56
2016-09-25T07:23:34.752Z,16.46
2016-09-25T07:24:34.777Z,16.48
2016-09-25T07:25:34.809Z,16.41
2016-09-25T07:26:49.762Z,16.39
2016-09-25T07:27:34.866Z,16.45
2016-09-25T07:28:34.892Z,16.41
2016-09-25T07:29:35.222Z,16.57
2016-09-25T07:30:49.869Z,16.61
2016-09-25T07:31:49.898Z,16.78
2016-09-25T07:32:35.003Z,16.97
2016-09-25T07:33:35.038Z,16.94
2016-09-25T07:34:35.068Z,17.03
2016-09-25T07:35:35.090Z,17.11
2016-09-25T07:36:35.112Z,17.15
2016-09-25T07:37:35.145Z,17.15
2016-09-25T07:38:35.175Z,17.04
2016-09-25T07:39:35.198Z,17.06
2016-09-25T07:40:35.237Z,17.19
2016-09-25T07:41:50.182Z,17.01
2016-09-25T07:42:35.278Z,16.94
2016-09-25T07:43:35.303Z,17.06
2016-09-25T07:44:35.353Z,17.14
2016-09-25T07:45:50.289Z,16.91
2016-09-25T07:46:50.319Z,16.85
2016-09-25T07:47:35.423Z,16.83
2016-09-25T07:48:35.444Z,16.98
2016-09-25T07:49:35.472Z,17.06
2016-09-25T07:50:35.499Z,17.04
2016-09-25T07:51:35.526Z,17.07
2016-09-25T07:52:35.552Z,17.16
2016-09-25T07:53:35.581Z,17.14
2016-09-25T07:54:35.610Z,17.19
2016-09-25T07:55:35.630Z,17.23
2016-09-25T07:56:35.662Z,17.33
2016-09-25T07:57:35.694Z,17.38
2016-09-25T07:58:50.641Z,17.48
2016-09-25T07:59:35.742Z,17.58
2016-09-25T08:00:35.769Z,17.68
2016-09-25T08:01:50.717Z,17.74
2016-09-25T08:02:35.837Z,17.84
2016-09-25T08:03:35.846Z,18.03
2016-09-25T08:04:35.874Z,18.05
2016-09-25T08:05:35.904Z,18.18
2016-09-25T08:06:35.933Z,18.17
2016-09-25T08:07:35.968Z,18.41
2016-09-25T08:08:35.980Z,18.52
2016-09-25T08:09:36.008Z,18.48
2016-09-25T08:10:36.044Z,18.48
2016-09-25T08:12:36.099Z,18.44
2016-09-25T08:13:51.045Z,18.45
2016-09-25T08:14:51.071Z,18.54
2016-09-25T08:15:36.168Z,18.65
2016-09-25T08:17:36.226Z,18.75
2016-09-25T08:18:36.556Z,18.73
2016-09-25T08:19:36.584Z,18.76
2016-09-25T08:20:36.313Z,18.88
2016-09-25T08:21:36.336Z,18.9
2016-09-25T08:22:36.362Z,18.98
2016-09-25T08:23:36.656Z,18.87
2016-09-25T08:24:36.420Z,18.94
2016-09-25T08:25:36.447Z,19.13
2016-09-25T08:26:36.473Z,19.06
2016-09-25T08:27:36.501Z,19.21
2016-09-25T08:28:36.529Z,19.08
2016-09-25T08:29:36.557Z,19.11
2016-09-25T08:30:36.885Z,19.04
2016-09-25T08:31:36.611Z,19.21
2016-09-25T08:32:36.637Z,19.07
2016-09-25T08:33:51.588Z,19
2016-09-25T08:34:36.693Z,19.02
2016-09-25T08:35:36.723Z,19.1
2016-09-25T08:36:36.743Z,19.11
2016-09-25T08:37:36.768Z,19.16
2016-09-25T08:38:36.814Z,19.21
2016-09-25T08:39:36.822Z,19.14
2016-09-25T08:40:36.846Z,19.19
2016-09-25T08:42:36.908Z,19.21
2016-09-25T08:43:36.936Z,19.18
2016-09-25T08:44:36.961Z,19.19
2016-09-25T08:45:36.983Z,19.22
2016-09-25T08:46:37.009Z,19.37
2016-09-25T08:47:37.358Z,19.46
2016-09-25T08:48:37.064Z,19.73
2016-09-25T08:49:52.019Z,19.77
2016-09-25T08:50:37.124Z,19.77
2016-09-25T08:51:37.150Z,19.73
2016-09-25T08:52:37.181Z,19.86
2016-09-25T08:53:37.205Z,19.95
2016-09-25T08:54:37.231Z,19.99
2016-09-25T08:55:37.556Z,19.98
2016-09-25T08:56:37.286Z,20.01
2016-09-25T08:57:37.314Z,19.95
2016-09-25T08:58:37.344Z,19.95
2016-09-25T08:59:37.367Z,20.08
2016-09-25T09:00:37.392Z,20.1
2016-09-25T09:01:37.426Z,20.14
2016-09-25T09:02:52.376Z,20.13
2016-09-25T09:03:37.480Z,20.2
2016-09-25T09:04:37.507Z,20.28
2016-09-25T09:05:52.456Z,20.21
2016-09-25T09:06:37.562Z,20.11
2016-09-25T09:07:37.591Z,20.35
2016-09-25T09:08:37.615Z,20.24
2016-09-25T09:09:37.639Z,20.2
2016-09-25T09:10:37.673Z,20.38
2016-09-25T09:11:37.702Z,20.38
2016-09-25T09:12:37.729Z,20.43
2016-09-25T09:13:37.748Z,20.41
2016-09-25T09:14:37.787Z,20.57
2016-09-25T09:15:37.808Z,20.67
2016-09-25T09:16:37.838Z,20.67
2016-09-25T09:17:37.863Z,20.7
2016-09-25T09:18:37.894Z,20.72
2016-09-25T09:19:37.915Z,20.88
2016-09-25T09:21:52.896Z,20.85
2016-09-25T09:22:38.005Z,20.91
2016-09-25T09:23:38.025Z,20.89
2016-09-25T09:24:38.065Z,20.98
2016-09-25T09:25:38.395Z,20.94
2016-09-25T09:26:38.115Z,20.88
2016-09-25T09:27:38.145Z,20.89
2016-09-25T09:28:38.164Z,20.95
2016-09-25T09:29:38.198Z,21.13
2016-09-25T09:30:38.242Z,21.34
2016-09-25T09:31:38.256Z,21.28
2016-09-25T09:32:38.277Z,21.25
2016-09-25T09:33:38.319Z,21.32
2016-09-25T09:34:38.335Z,21.5
2016-09-25T09:35:38.370Z,21.74
2016-09-25T09:36:53.314Z,21.84
2016-09-25T09:37:38.421Z,21.86
2016-09-25T09:38:38.452Z,22.14
2016-09-25T09:39:38.475Z,22.17
2016-09-25T09:40:38.507Z,22.35
2016-09-25T09:41:38.539Z,22.42
2016-09-25T09:42:38.554Z,22.27
2016-09-25T09:43:38.592Z,22.22
2016-09-25T09:44:38.621Z,22.1
2016-09-25T09:45:38.649Z,22.12
2016-09-25T09:46:38.673Z,22.1
2016-09-25T09:48:38.728Z,22.18
2016-09-25T09:49:38.762Z,22.22
2016-09-25T09:50:53.712Z,22.14
2016-09-25T09:51:38.822Z,22
2016-09-25T09:52:38.846Z,22.02
2016-09-25T09:53:38.873Z,22.1
2016-09-25T09:54:38.897Z,22.25
2016-09-25T09:55:38.943Z,22.42
2016-09-25T09:56:38.970Z,22.52
2016-09-25T09:57:38.988Z,22.62
2016-09-25T09:58:39.013Z,22.68
2016-09-25T09:59:39.040Z,22.76
2016-09-25T10:01:39.098Z,22.88
2016-09-25T10:02:39.125Z,22.75
2016-09-25T10:03:39.162Z,22.72
2016-09-25T10:04:39.188Z,22.76
2016-09-25T10:05:39.220Z,22.75
2016-09-25T10:06:39.241Z,22.65
2016-09-25T10:07:39.277Z,22.62
2016-09-25T10:08:54.227Z,22.3
2016-09-25T10:09:54.251Z,22.18
2016-09-25T10:10:39.359Z,22.1
2016-09-25T10:11:39.389Z,21.99
2016-09-25T10:12:39.422Z,22.06
2016-09-25T10:13:39.444Z,22
2016-09-25T10:14:39.475Z,22.09
2016-09-25T10:15:39.502Z,22.2
2016-09-25T10:16:39.533Z,22.22
2016-09-25T10:17:39.559Z,22.58
2016-09-25T10:18:39.592Z,22.61
2016-09-25T10:19:39.617Z,22.43
2016-09-25T10:20:39.642Z,22.58
2016-09-25T10:22:39.706Z,22.97
2016-09-25T10:23:39.734Z,22.92
2016-09-25T10:24:54.682Z,22.97
2016-09-25T10:25:39.788Z,22.97
2016-09-25T10:26:39.820Z,22.9
2016-09-25T10:27:39.853Z,22.79
2016-09-25T10:28:39.875Z,22.83
2016-09-25T10:29:39.904Z,22.76
2016-09-25T10:30:39.934Z,22.73
2016-09-25T10:31:39.961Z,22.54
2016-09-25T10:33:40.016Z,22.46
2016-09-25T10:34:40.040Z,22.61
2016-09-25T10:35:40.075Z,22.73
2016-09-25T10:37:55.055Z,22.76
2016-09-25T10:38:40.151Z,22.72
2016-09-25T10:39:40.191Z,22.73
2016-09-25T10:40:55.135Z,22.68
2016-09-25T10:42:40.271Z,22.76
2016-09-25T10:43:40.300Z,22.67
2016-09-25T10:44:40.325Z,22.68
2016-09-25T10:45:40.361Z,22.77
2016-09-25T10:46:40.382Z,22.82
2016-09-25T10:48:40.440Z,23.01
2016-09-25T10:49:40.768Z,23
2016-09-25T10:50:40.494Z,22.9
2016-09-25T10:51:40.526Z,22.91
2016-09-25T10:52:40.559Z,22.92
2016-09-25T10:53:40.583Z,22.9
2016-09-25T10:55:40.639Z,22.64
2016-09-25T10:56:55.591Z,22.49
2016-09-25T10:57:40.690Z,22.51
2016-09-25T10:58:40.720Z,22.6
2016-09-25T10:59:40.794Z,22.65
2016-09-25T11:00:40.782Z,22.75
2016-09-25T11:01:40.809Z,22.76
2016-09-25T11:02:40.829Z,22.77
2016-09-25T11:03:40.859Z,22.94
2016-09-25T11:04:40.889Z,23.02
2016-09-25T11:05:40.913Z,23.02
2016-09-25T11:06:40.946Z,22.97
2016-09-25T11:07:40.978Z,23.07
2016-09-25T11:08:41.006Z,23.19
2016-09-25T11:09:41.022Z,23.13
2016-09-25T11:10:41.057Z,23.2
2016-09-25T11:11:56.005Z,23.22
2016-09-25T11:12:41.112Z,23.33
2016-09-25T11:13:56.060Z,23.19
2016-09-25T11:14:41.168Z,23.13
2016-09-25T11:15:41.193Z,23.09
2016-09-25T11:16:41.226Z,23.04
2016-09-25T11:17:41.251Z,23.07
2016-09-25T11:18:41.273Z,23.05
2016-09-25T11:19:41.303Z,23.02
2016-09-25T11:20:41.356Z,23.05
2016-09-25T11:21:41.663Z,23.15
2016-09-25T11:22:41.402Z,23.04
2016-09-25T11:23:41.422Z,23.07
2016-09-25T11:24:41.445Z,23.13
2016-09-25T11:25:41.469Z,23.23
2016-09-25T11:26:41.504Z,23.23
2016-09-25T11:27:56.453Z,23.23
2016-09-25T11:28:41.558Z,23.38
2016-09-25T11:29:41.582Z,23.38
2016-09-25T11:30:41.610Z,23.31
2016-09-25T11:31:41.657Z,23.35
2016-09-25T11:32:41.667Z,23.33
2016-09-25T11:33:41.699Z,23.33
2016-09-25T11:34:41.721Z,23.46
2016-09-25T11:35:41.753Z,23.46
2016-09-25T11:36:41.784Z,23.36
2016-09-25T11:37:41.806Z,23.48
2016-09-25T11:38:41.838Z,23.48
2016-09-25T11:39:41.858Z,23.47
2016-09-25T11:41:41.921Z,23.17
2016-09-25T11:42:41.942Z,23.36
2016-09-25T11:43:56.895Z,23.27
2016-09-25T11:44:42.005Z,23.27
2016-09-25T11:45:42.029Z,23.23
2016-09-25T11:46:42.056Z,23.23
2016-09-25T11:47:42.089Z,23.28
2016-09-25T11:48:42.107Z,23.25
2016-09-25T11:49:42.137Z,23.31
2016-09-25T11:50:42.171Z,23.25
2016-09-25T11:51:42.196Z,23.17
2016-09-25T11:52:42.229Z,23.13
2016-09-25T11:53:42.251Z,23.17
2016-09-25T11:54:57.208Z,23.15
2016-09-25T11:55:42.322Z,23.17
2016-09-25T11:56:57.263Z,22.98
2016-09-25T11:57:42.359Z,23.01
2016-09-25T11:58:42.396Z,23.02
2016-09-25T11:59:57.348Z,23.17
2016-09-25T12:00:42.456Z,23.36
2016-09-25T12:01:42.479Z,23.27
2016-09-25T12:02:42.505Z,23.02
2016-09-25T12:03:42.535Z,22.98
2016-09-25T12:04:42.560Z,22.98
2016-09-25T12:05:42.588Z,22.98
2016-09-25T12:06:42.613Z,22.91
2016-09-25T12:07:42.643Z,23.07
2016-09-25T12:08:42.671Z,23.07
2016-09-25T12:09:42.691Z,23.17
2016-09-25T12:10:42.725Z,23.28
2016-09-25T12:11:42.751Z,23.39
2016-09-25T12:12:42.791Z,23.33
2016-09-25T12:13:42.809Z,23.54
2016-09-25T12:14:42.834Z,23.54
2016-09-25T12:15:57.789Z,23.65
2016-09-25T12:16:42.887Z,23.61
2016-09-25T12:17:42.923Z,23.68
2016-09-25T12:18:42.956Z,23.57
2016-09-25T12:19:42.974Z,23.54
2016-09-25T12:20:43.003Z,23.58
2016-09-25T12:21:43.026Z,23.43
2016-09-25T12:22:43.058Z,23.39
2016-09-25T12:23:43.080Z,23.32
2016-09-25T12:24:43.122Z,23.2
2016-09-25T12:25:43.140Z,23.17
2016-09-25T12:26:43.159Z,23.04
2016-09-25T12:27:43.193Z,23.09
2016-09-25T12:28:43.230Z,23.19
2016-09-25T12:29:43.250Z,23.28
2016-09-25T12:30:43.281Z,23.28
2016-09-25T12:31:58.228Z,23.38
2016-09-25T12:32:43.331Z,23.57
2016-09-25T12:33:43.364Z,23.58
2016-09-25T12:34:43.388Z,23.58
2016-09-25T12:35:43.425Z,23.54
2016-09-25T12:36:43.542Z,23.57
2016-09-25T12:37:43.471Z,23.73
2016-09-25T12:38:43.496Z,23.73
2016-09-25T12:39:43.525Z,23.75
2016-09-25T12:40:43.557Z,23.69
2016-09-25T12:41:43.583Z,23.69
2016-09-25T12:42:43.607Z,23.72
2016-09-25T12:43:58.568Z,23.8
2016-09-25T12:44:43.668Z,23.85
2016-09-25T12:45:43.695Z,23.88
2016-09-25T12:46:58.651Z,23.8
2016-09-25T12:47:58.675Z,23.76
2016-09-25T12:48:43.784Z,23.75
2016-09-25T12:49:43.817Z,23.61
2016-09-25T12:50:43.831Z,23.63
2016-09-25T12:51:43.865Z,23.68
2016-09-25T12:52:43.897Z,23.65
2016-09-25T12:53:43.915Z,23.57
2016-09-25T12:54:43.956Z,23.55
2016-09-25T12:55:43.977Z,23.5
2016-09-25T12:56:43.999Z,23.61
2016-09-25T12:57:44.028Z,23.68
2016-09-25T12:58:44.056Z,23.63
2016-09-25T13:00:44.157Z,23.65
2016-09-25T13:01:59.067Z,23.57
2016-09-25T13:02:59.094Z,23.48
2016-09-25T13:03:59.121Z,23.55
2016-09-25T13:04:44.229Z,23.61
2016-09-25T13:05:44.260Z,23.78
2016-09-25T13:06:44.273Z,23.79
2016-09-25T13:07:44.307Z,23.84
2016-09-25T13:08:44.336Z,23.95
2016-09-25T13:09:44.361Z,23.9
2016-09-25T13:10:44.394Z,24.02
2016-09-25T13:11:44.417Z,23.87
2016-09-25T13:12:44.446Z,23.8
2016-09-25T13:13:44.475Z,23.94
2016-09-25T13:14:59.429Z,23.91
2016-09-25T13:15:59.457Z,23.88
2016-09-25T13:16:44.555Z,23.93
2016-09-25T13:17:44.591Z,23.95
2016-09-25T13:18:59.543Z,24.16
2016-09-25T13:19:44.643Z,24.13
2016-09-25T13:20:44.668Z,24.09
2016-09-25T13:21:44.697Z,24.12
2016-09-25T13:22:44.728Z,23.95
2016-09-25T13:23:44.749Z,23.79
2016-09-25T13:24:44.787Z,23.69
2016-09-25T13:25:44.811Z,23.7
2016-09-25T13:26:44.837Z,23.69
2016-09-25T13:27:44.866Z,23.78
2016-09-25T13:28:44.896Z,23.72
2016-09-25T13:30:59.876Z,23.51
2016-09-25T13:31:44.973Z,23.48
2016-09-25T13:32:45.006Z,23.55
2016-09-25T13:33:45.029Z,23.58
2016-09-25T13:34:59.983Z,23.68
2016-09-25T13:35:45.086Z,23.7
2016-09-25T13:36:45.124Z,23.58
2016-09-25T13:37:45.142Z,23.68
2016-09-25T13:38:45.170Z,23.61
2016-09-25T13:39:45.203Z,23.7
2016-09-25T13:40:45.230Z,23.55
2016-09-25T13:41:45.260Z,23.47
2016-09-25T13:42:45.284Z,23.42